sensor_id;sensor_type;location;lat;lon;timestamp;P1;durP1;ratioP1;P2;durP2;ratioP2
37715;SDS011;23562;50.540;12.504;2023-02-28T00:02:21;5.35;;;3.60;;
37715;SDS011;23562;50.540;12.504;2023-02-28T00:04:46;6.75;;;4.00;;
37715;SDS011;23562;50.540;12.504;2023-02-28T00:07:28;7.63;;;3.80;;
37715;SDS011;23562;50.540;12.504;2023-02-28T00:09:53;6.73;;;4.00;;
37715;SDS011;23562;50.540;12.504;2023-02-28T00:12:18;6.13;;;3.53;;
37715;SDS011;23562;50.540;12.504;2023-02-28T00:14:43;8.88;;;3.90;;
37715;SDS011;23562;50.540;12.504;2023-02-28T00:17:08;6.77;;;4.20;;
37715;SDS011;23562;50.540;12.504;2023-02-28T00:19:33;6.87;;;3.87;;
37715;SDS011;23562;50.540;12.504;2023-02-28T00:21:59;10.40;;;4.20;;
37715;SDS011;23562;50.540;12.504;2023-02-28T00:24:24;7.38;;;3.80;;
37715;SDS011;23562;50.540;12.504;2023-02-28T00:26:49;8.75;;;3.97;;
37715;SDS011;23562;50.540;12.504;2023-02-28T00:29:14;6.50;;;3.88;;
37715;SDS011;23562;50.540;12.504;2023-02-28T00:31:39;5.82;;;3.30;;
37715;SDS011;23562;50.540;12.504;2023-02-28T00:34:04;7.25;;;4.13;;
37715;SDS011;23562;50.540;12.504;2023-02-28T00:36:29;5.22;;;3.42;;
37715;SDS011;23562;50.540;12.504;2023-02-28T00:38:54;6.93;;;3.45;;
37715;SDS011;23562;50.540;12.504;2023-02-28T00:41:20;8.43;;;3.73;;
37715;SDS011;23562;50.540;12.504;2023-02-28T00:43:45;7.50;;;3.93;;
37715;SDS011;23562;50.540;12.504;2023-02-28T00:46:10;8.13;;;3.77;;
37715;SDS011;23562;50.540;12.504;2023-02-28T00:48:35;9.05;;;4.28;;
37715;SDS011;23562;50.540;12.504;2023-02-28T00:51:00;8.90;;;4.00;;
37715;SDS011;23562;50.540;12.504;2023-02-28T00:53:25;6.33;;;3.63;;
37715;SDS011;23562;50.540;12.504;2023-02-28T00:55:51;6.63;;;3.90;;
37715;SDS011;23562;50.540;12.504;2023-02-28T00:58:16;8.27;;;3.75;;
37715;SDS011;23562;50.540;12.504;2023-02-28T01:00:41;7.03;;;4.07;;
37715;SDS011;23562;50.540;12.504;2023-02-28T01:03:06;6.55;;;3.80;;
37715;SDS011;23562;50.540;12.504;2023-02-28T01:05:31;8.93;;;4.10;;
37715;SDS011;23562;50.540;12.504;2023-02-28T01:07:56;6.95;;;3.78;;
37715;SDS011;23562;50.540;12.504;2023-02-28T01:10:21;6.35;;;3.67;;
37715;SDS011;23562;50.540;12.504;2023-02-28T01:12:46;8.23;;;4.05;;
37715;SDS011;23562;50.540;12.504;2023-02-28T01:15:12;7.78;;;4.18;;
37715;SDS011;23562;50.540;12.504;2023-02-28T01:17:37;6.93;;;3.75;;
37715;SDS011;23562;50.540;12.504;2023-02-28T01:20:03;6.75;;;4.10;;
37715;SDS011;23562;50.540;12.504;2023-02-28T01:22:30;6.05;;;4.10;;
37715;SDS011;23562;50.540;12.504;2023-02-28T01:24:55;7.07;;;4.38;;
37715;SDS011;23562;50.540;12.504;2023-02-28T01:27:20;12.18;;;4.95;;
37715;SDS011;23562;50.540;12.504;2023-02-28T01:29:46;7.90;;;4.38;;
37715;SDS011;23562;50.540;12.504;2023-02-28T01:32:11;8.95;;;5.20;;
37715;SDS011;23562;50.540;12.504;2023-02-28T01:34:36;9.37;;;4.60;;
37715;SDS011;23562;50.540;12.504;2023-02-28T01:37:01;6.18;;;4.22;;
37715;SDS011;23562;50.540;12.504;2023-02-28T01:39:28;9.68;;;4.28;;
37715;SDS011;23562;50.540;12.504;2023-02-28T01:41:53;7.32;;;4.32;;
37715;SDS011;23562;50.540;12.504;2023-02-28T01:47:02;8.75;;;4.55;;
37715;SDS011;23562;50.540;12.504;2023-02-28T01:49:27;8.73;;;4.65;;
37715;SDS011;23562;50.540;12.504;2023-02-28T01:51:53;6.43;;;3.90;;
37715;SDS011;23562;50.540;12.504;2023-02-28T01:54:21;9.73;;;4.35;;
37715;SDS011;23562;50.540;12.504;2023-02-28T01:56:48;9.38;;;4.35;;
37715;SDS011;23562;50.540;12.504;2023-02-28T01:59:14;9.13;;;4.60;;
37715;SDS011;23562;50.540;12.504;2023-02-28T02:01:41;9.57;;;4.53;;
37715;SDS011;23562;50.540;12.504;2023-02-28T02:04:19;10.65;;;4.55;;
37715;SDS011;23562;50.540;12.504;2023-02-28T02:06:46;9.65;;;4.63;;
37715;SDS011;23562;50.540;12.504;2023-02-28T02:09:12;8.05;;;4.50;;
37715;SDS011;23562;50.540;12.504;2023-02-28T02:11:37;7.57;;;4.33;;
37715;SDS011;23562;50.540;12.504;2023-02-28T02:17:35;10.48;;;4.60;;
37715;SDS011;23562;50.540;12.504;2023-02-28T02:19:53;7.10;;;3.95;;
37715;SDS011;23562;50.540;12.504;2023-02-28T02:27:59;12.85;;;4.90;;
37715;SDS011;23562;50.540;12.504;2023-02-28T02:30:31;12.05;;;4.95;;
37715;SDS011;23562;50.540;12.504;2023-02-28T02:38:28;8.52;;;4.78;;
37715;SDS011;23562;50.540;12.504;2023-02-28T02:43:41;12.57;;;5.72;;
37715;SDS011;23562;50.540;12.504;2023-02-28T02:46:10;10.73;;;5.13;;
37715;SDS011;23562;50.540;12.504;2023-02-28T02:48:38;13.52;;;6.30;;
37715;SDS011;23562;50.540;12.504;2023-02-28T02:51:05;10.48;;;5.30;;
37715;SDS011;23562;50.540;12.504;2023-02-28T02:53:37;13.65;;;5.13;;
37715;SDS011;23562;50.540;12.504;2023-02-28T02:56:03;8.05;;;5.07;;
37715;SDS011;23562;50.540;12.504;2023-02-28T02:58:29;12.27;;;5.53;;
37715;SDS011;23562;50.540;12.504;2023-02-28T03:00:56;9.10;;;5.32;;
37715;SDS011;23562;50.540;12.504;2023-02-28T03:03:23;11.23;;;6.20;;
37715;SDS011;23562;50.540;12.504;2023-02-28T03:05:53;13.27;;;5.70;;
37715;SDS011;23562;50.540;12.504;2023-02-28T03:08:19;9.63;;;5.13;;
37715;SDS011;23562;50.540;12.504;2023-02-28T03:10:45;10.50;;;5.30;;
37715;SDS011;23562;50.540;12.504;2023-02-28T03:13:25;8.63;;;5.03;;
37715;SDS011;23562;50.540;12.504;2023-02-28T03:18:40;38.78;;;16.05;;
37715;SDS011;23562;50.540;12.504;2023-02-28T03:21:19;41.60;;;17.52;;
37715;SDS011;23562;50.540;12.504;2023-02-28T03:23:53;35.08;;;15.85;;
37715;SDS011;23562;50.540;12.504;2023-02-28T03:26:21;26.08;;;11.65;;
37715;SDS011;23562;50.540;12.504;2023-02-28T03:28:52;19.80;;;8.82;;
37715;SDS011;23562;50.540;12.504;2023-02-28T03:31:24;14.60;;;7.93;;
37715;SDS011;23562;50.540;12.504;2023-02-28T03:33:51;13.82;;;8.30;;
37715;SDS011;23562;50.540;12.504;2023-02-28T03:36:25;12.25;;;6.57;;
37715;SDS011;23562;50.540;12.504;2023-02-28T03:38:56;13.98;;;6.10;;
37715;SDS011;23562;50.540;12.504;2023-02-28T03:41:23;12.48;;;5.80;;
37715;SDS011;23562;50.540;12.504;2023-02-28T03:43:53;9.65;;;5.22;;
37715;SDS011;23562;50.540;12.504;2023-02-28T03:46:19;12.10;;;6.18;;
37715;SDS011;23562;50.540;12.504;2023-02-28T03:48:51;12.35;;;5.32;;
37715;SDS011;23562;50.540;12.504;2023-02-28T03:51:20;9.85;;;5.25;;
37715;SDS011;23562;50.540;12.504;2023-02-28T03:53:54;12.18;;;6.20;;
37715;SDS011;23562;50.540;12.504;2023-02-28T03:56:20;11.77;;;6.28;;
37715;SDS011;23562;50.540;12.504;2023-02-28T03:59:04;10.52;;;5.60;;
37715;SDS011;23562;50.540;12.504;2023-02-28T04:01:34;12.60;;;5.65;;
37715;SDS011;23562;50.540;12.504;2023-02-28T04:09:14;11.07;;;5.78;;
37715;SDS011;23562;50.540;12.504;2023-02-28T04:11:40;10.48;;;5.68;;
37715;SDS011;23562;50.540;12.504;2023-02-28T04:14:07;11.38;;;5.95;;
37715;SDS011;23562;50.540;12.504;2023-02-28T04:16:33;13.90;;;6.43;;
37715;SDS011;23562;50.540;12.504;2023-02-28T04:18:58;14.50;;;6.35;;
37715;SDS011;23562;50.540;12.504;2023-02-28T04:21:46;13.52;;;6.95;;
37715;SDS011;23562;50.540;12.504;2023-02-28T04:24:13;13.55;;;6.28;;
37715;SDS011;23562;50.540;12.504;2023-02-28T04:26:39;13.85;;;6.35;;
37715;SDS011;23562;50.540;12.504;2023-02-28T04:29:05;12.75;;;6.90;;
37715;SDS011;23562;50.540;12.504;2023-02-28T04:31:30;13.30;;;6.70;;
37715;SDS011;23562;50.540;12.504;2023-02-28T04:33:58;9.38;;;5.93;;
37715;SDS011;23562;50.540;12.504;2023-02-28T04:36:26;12.63;;;6.57;;
37715;SDS011;23562;50.540;12.504;2023-02-28T04:38:58;12.65;;;7.13;;
37715;SDS011;23562;50.540;12.504;2023-02-28T04:41:26;13.83;;;7.10;;
37715;SDS011;23562;50.540;12.504;2023-02-28T04:43:54;12.35;;;6.57;;
37715;SDS011;23562;50.540;12.504;2023-02-28T04:46:36;10.90;;;6.35;;
37715;SDS011;23562;50.540;12.504;2023-02-28T04:49:08;14.10;;;7.15;;
37715;SDS011;23562;50.540;12.504;2023-02-28T04:54:55;19.67;;;10.05;;
37715;SDS011;23562;50.540;12.504;2023-02-28T05:00:37;18.20;;;9.15;;
37715;SDS011;23562;50.540;12.504;2023-02-28T05:06:52;17.92;;;8.45;;
37715;SDS011;23562;50.540;12.504;2023-02-28T05:12:30;17.05;;;10.13;;
37715;SDS011;23562;50.540;12.504;2023-02-28T05:18:38;18.27;;;9.38;;
37715;SDS011;23562;50.540;12.504;2023-02-28T05:27:40;15.85;;;8.82;;
37715;SDS011;23562;50.540;12.504;2023-02-28T05:30:18;16.02;;;9.05;;
37715;SDS011;23562;50.540;12.504;2023-02-28T05:36:10;85.35;;;27.92;;
37715;SDS011;23562;50.540;12.504;2023-02-28T05:38:49;133.10;;;38.22;;
37715;SDS011;23562;50.540;12.504;2023-02-28T05:41:23;81.25;;;27.23;;
37715;SDS011;23562;50.540;12.504;2023-02-28T05:44:12;41.43;;;16.63;;
37715;SDS011;23562;50.540;12.504;2023-02-28T05:56:35;30.98;;;14.32;;
37715;SDS011;23562;50.540;12.504;2023-02-28T06:05:27;190.23;;;55.60;;
37715;SDS011;23562;50.540;12.504;2023-02-28T06:11:10;42.05;;;17.58;;
37715;SDS011;23562;50.540;12.504;2023-02-28T06:16:16;25.27;;;11.07;;
37715;SDS011;23562;50.540;12.504;2023-02-28T06:18:48;28.05;;;11.70;;
37715;SDS011;23562;50.540;12.504;2023-02-28T06:21:23;26.75;;;11.85;;
37715;SDS011;23562;50.540;12.504;2023-02-28T06:24:06;21.83;;;11.75;;
37715;SDS011;23562;50.540;12.504;2023-02-28T06:32:58;16.23;;;8.60;;
37715;SDS011;23562;50.540;12.504;2023-02-28T06:35:43;17.98;;;8.57;;
37715;SDS011;23562;50.540;12.504;2023-02-28T06:38:22;17.95;;;9.90;;
37715;SDS011;23562;50.540;12.504;2023-02-28T06:40:59;20.67;;;11.15;;
37715;SDS011;23562;50.540;12.504;2023-02-28T06:46:31;17.27;;;10.57;;
37715;SDS011;23562;50.540;12.504;2023-02-28T06:52:15;20.00;;;11.05;;
37715;SDS011;23562;50.540;12.504;2023-02-28T06:54:43;21.97;;;12.70;;
37715;SDS011;23562;50.540;12.504;2023-02-28T07:00:12;26.95;;;14.43;;
37715;SDS011;23562;50.540;12.504;2023-02-28T07:02:40;34.58;;;16.42;;
37715;SDS011;23562;50.540;12.504;2023-02-28T07:05:08;36.40;;;17.17;;
37715;SDS011;23562;50.540;12.504;2023-02-28T07:07:36;26.70;;;15.40;;
37715;SDS011;23562;50.540;12.504;2023-02-28T07:16:24;21.10;;;10.45;;
37715;SDS011;23562;50.540;12.504;2023-02-28T07:18:52;21.00;;;10.82;;
37715;SDS011;23562;50.540;12.504;2023-02-28T07:30:25;18.13;;;9.30;;
37715;SDS011;23562;50.540;12.504;2023-02-28T07:55:17;23.35;;;11.70;;
37715;SDS011;23562;50.540;12.504;2023-02-28T07:57:53;20.15;;;11.00;;
37715;SDS011;23562;50.540;12.504;2023-02-28T08:00:24;19.38;;;9.75;;
37715;SDS011;23562;50.540;12.504;2023-02-28T08:02:50;27.83;;;15.02;;
37715;SDS011;23562;50.540;12.504;2023-02-28T08:05:15;20.53;;;12.53;;
37715;SDS011;23562;50.540;12.504;2023-02-28T08:07:40;26.25;;;16.23;;
37715;SDS011;23562;50.540;12.504;2023-02-28T08:10:08;32.38;;;19.67;;
37715;SDS011;23562;50.540;12.504;2023-02-28T08:15:42;32.55;;;17.20;;
37715;SDS011;23562;50.540;12.504;2023-02-28T08:21:13;19.85;;;12.07;;
37715;SDS011;23562;50.540;12.504;2023-02-28T08:23:38;23.65;;;11.50;;
37715;SDS011;23562;50.540;12.504;2023-02-28T08:26:06;24.45;;;11.40;;
37715;SDS011;23562;50.540;12.504;2023-02-28T08:28:37;27.00;;;11.73;;
37715;SDS011;23562;50.540;12.504;2023-02-28T08:33:47;18.48;;;10.02;;
37715;SDS011;23562;50.540;12.504;2023-02-28T08:36:14;34.33;;;15.00;;
37715;SDS011;23562;50.540;12.504;2023-02-28T08:38:54;30.58;;;13.68;;
37715;SDS011;23562;50.540;12.504;2023-02-28T08:41:19;29.02;;;12.43;;
37715;SDS011;23562;50.540;12.504;2023-02-28T08:43:44;25.27;;;13.07;;
37715;SDS011;23562;50.540;12.504;2023-02-28T08:46:13;22.70;;;11.02;;
37715;SDS011;23562;50.540;12.504;2023-02-28T08:48:39;20.83;;;9.40;;
37715;SDS011;23562;50.540;12.504;2023-02-28T08:51:05;30.38;;;13.35;;
37715;SDS011;23562;50.540;12.504;2023-02-28T08:53:31;20.83;;;8.57;;
37715;SDS011;23562;50.540;12.504;2023-02-28T08:55:57;16.95;;;9.75;;
37715;SDS011;23562;50.540;12.504;2023-02-28T08:58:22;22.70;;;10.40;;
37715;SDS011;23562;50.540;12.504;2023-02-28T09:00:47;17.27;;;8.33;;
37715;SDS011;23562;50.540;12.504;2023-02-28T09:03:13;14.50;;;7.70;;
37715;SDS011;23562;50.540;12.504;2023-02-28T09:05:38;15.80;;;8.82;;
37715;SDS011;23562;50.540;12.504;2023-02-28T09:08:03;16.55;;;9.98;;
37715;SDS011;23562;50.540;12.504;2023-02-28T09:10:28;17.57;;;9.33;;
37715;SDS011;23562;50.540;12.504;2023-02-28T09:12:53;19.00;;;9.75;;
37715;SDS011;23562;50.540;12.504;2023-02-28T09:15:18;19.25;;;10.20;;
37715;SDS011;23562;50.540;12.504;2023-02-28T09:17:43;16.65;;;9.88;;
37715;SDS011;23562;50.540;12.504;2023-02-28T09:20:09;15.80;;;7.70;;
37715;SDS011;23562;50.540;12.504;2023-02-28T09:22:34;16.52;;;8.88;;
37715;SDS011;23562;50.540;12.504;2023-02-28T09:25:00;12.88;;;8.30;;
37715;SDS011;23562;50.540;12.504;2023-02-28T09:27:25;15.18;;;8.95;;
37715;SDS011;23562;50.540;12.504;2023-02-28T09:29:50;29.58;;;10.88;;
37715;SDS011;23562;50.540;12.504;2023-02-28T09:32:15;16.08;;;9.20;;
37715;SDS011;23562;50.540;12.504;2023-02-28T09:34:42;22.85;;;9.75;;
37715;SDS011;23562;50.540;12.504;2023-02-28T09:37:07;21.80;;;10.00;;
37715;SDS011;23562;50.540;12.504;2023-02-28T09:39:32;22.05;;;11.13;;
37715;SDS011;23562;50.540;12.504;2023-02-28T09:41:57;28.10;;;14.25;;
37715;SDS011;23562;50.540;12.504;2023-02-28T09:44:35;41.50;;;14.18;;
37715;SDS011;23562;50.540;12.504;2023-02-28T09:47:05;34.90;;;15.20;;
37715;SDS011;23562;50.540;12.504;2023-02-28T09:49:40;47.00;;;19.33;;
37715;SDS011;23562;50.540;12.504;2023-02-28T09:52:13;45.35;;;23.15;;
37715;SDS011;23562;50.540;12.504;2023-02-28T09:54:41;60.63;;;30.77;;
37715;SDS011;23562;50.540;12.504;2023-02-28T09:59:57;33.88;;;16.27;;
37715;SDS011;23562;50.540;12.504;2023-02-28T10:04:57;68.65;;;30.25;;
37715;SDS011;23562;50.540;12.504;2023-02-28T10:10:50;84.07;;;32.28;;
37715;SDS011;23562;50.540;12.504;2023-02-28T10:12:57;60.10;;;24.25;;
37715;SDS011;23562;50.540;12.504;2023-02-28T10:15:23;76.07;;;27.17;;
37715;SDS011;23562;50.540;12.504;2023-02-28T10:17:51;109.13;;;38.28;;
37715;SDS011;23562;50.540;12.504;2023-02-28T10:20:19;104.85;;;35.25;;
37715;SDS011;23562;50.540;12.504;2023-02-28T10:25:27;64.40;;;24.83;;
37715;SDS011;23562;50.540;12.504;2023-02-28T10:27:53;91.80;;;34.80;;
37715;SDS011;23562;50.540;12.504;2023-02-28T10:30:18;57.55;;;24.40;;
37715;SDS011;23562;50.540;12.504;2023-02-28T10:32:47;52.30;;;21.85;;
37715;SDS011;23562;50.540;12.504;2023-02-28T10:38:18;26.85;;;13.15;;
37715;SDS011;23562;50.540;12.504;2023-02-28T10:40:44;18.98;;;10.95;;
37715;SDS011;23562;50.540;12.504;2023-02-28T10:45:37;14.05;;;8.63;;
37715;SDS011;23562;50.540;12.504;2023-02-28T10:48:04;12.70;;;7.80;;
37715;SDS011;23562;50.540;12.504;2023-02-28T10:53:06;12.23;;;7.27;;
37715;SDS011;23562;50.540;12.504;2023-02-28T10:55:32;16.45;;;9.13;;
37715;SDS011;23562;50.540;12.504;2023-02-28T10:57:57;20.70;;;10.77;;
37715;SDS011;23562;50.540;12.504;2023-02-28T11:00:25;16.52;;;9.65;;
37715;SDS011;23562;50.540;12.504;2023-02-28T11:03:23;16.50;;;9.27;;
37715;SDS011;23562;50.540;12.504;2023-02-28T11:05:49;16.23;;;8.90;;
37715;SDS011;23562;50.540;12.504;2023-02-28T11:08:17;15.40;;;9.07;;
37715;SDS011;23562;50.540;12.504;2023-02-28T11:10:56;17.15;;;9.70;;
37715;SDS011;23562;50.540;12.504;2023-02-28T11:13:35;18.92;;;9.75;;
37715;SDS011;23562;50.540;12.504;2023-02-28T11:19:24;14.77;;;10.05;;
37715;SDS011;23562;50.540;12.504;2023-02-28T11:21:59;17.17;;;8.80;;
37715;SDS011;23562;50.540;12.504;2023-02-28T11:24:40;16.52;;;9.75;;
37715;SDS011;23562;50.540;12.504;2023-02-28T12:01:45;19.30;;;10.00;;
37715;SDS011;23562;50.540;12.504;2023-02-28T12:13:12;17.15;;;10.48;;
37715;SDS011;23562;50.540;12.504;2023-02-28T12:20:59;17.50;;;10.38;;
37715;SDS011;23562;50.540;12.504;2023-02-28T12:29:55;16.15;;;10.05;;
37715;SDS011;23562;50.540;12.504;2023-02-28T12:32:26;13.38;;;8.73;;
37715;SDS011;23562;50.540;12.504;2023-02-28T12:37:24;16.88;;;9.35;;
37715;SDS011;23562;50.540;12.504;2023-02-28T12:40:02;16.17;;;9.40;;
37715;SDS011;23562;50.540;12.504;2023-02-28T12:42:32;14.27;;;9.68;;
37715;SDS011;23562;50.540;12.504;2023-02-28T12:51:28;17.58;;;10.60;;
37715;SDS011;23562;50.540;12.504;2023-02-28T13:00:04;17.42;;;10.45;;
37715;SDS011;23562;50.540;12.504;2023-02-28T13:05:19;18.63;;;10.70;;
37715;SDS011;23562;50.540;12.504;2023-02-28T13:10:47;20.25;;;11.10;;
37715;SDS011;23562;50.540;12.504;2023-02-28T13:13:36;17.90;;;11.10;;
37715;SDS011;23562;50.540;12.504;2023-02-28T13:19:17;16.23;;;10.73;;
37715;SDS011;23562;50.540;12.504;2023-02-28T13:31:19;18.00;;;9.77;;
37715;SDS011;23562;50.540;12.504;2023-02-28T13:36:29;20.05;;;11.05;;
37715;SDS011;23562;50.540;12.504;2023-02-28T13:38:58;23.25;;;13.95;;
37715;SDS011;23562;50.540;12.504;2023-02-28T13:58:20;20.63;;;12.48;;
37715;SDS011;23562;50.540;12.504;2023-02-28T14:03:55;16.90;;;11.15;;
37715;SDS011;23562;50.540;12.504;2023-02-28T14:11:44;22.50;;;11.73;;
37715;SDS011;23562;50.540;12.504;2023-02-28T14:14:56;19.02;;;11.00;;
37715;SDS011;23562;50.540;12.504;2023-02-28T14:17:23;19.45;;;11.57;;
37715;SDS011;23562;50.540;12.504;2023-02-28T14:19:52;21.40;;;11.55;;
37715;SDS011;23562;50.540;12.504;2023-02-28T14:30:48;20.17;;;11.85;;
37715;SDS011;23562;50.540;12.504;2023-02-28T14:36:38;21.35;;;11.65;;
37715;SDS011;23562;50.540;12.504;2023-02-28T14:42:21;23.15;;;13.18;;
37715;SDS011;23562;50.540;12.504;2023-02-28T14:44:55;21.08;;;12.73;;
37715;SDS011;23562;50.540;12.504;2023-02-28T14:47:47;23.77;;;13.35;;
37715;SDS011;23562;50.540;12.504;2023-02-28T14:50:41;21.23;;;13.48;;
37715;SDS011;23562;50.540;12.504;2023-02-28T15:02:23;27.60;;;13.38;;
37715;SDS011;23562;50.540;12.504;2023-02-28T15:04:54;24.27;;;13.98;;
37715;SDS011;23562;50.540;12.504;2023-02-28T15:07:23;24.52;;;14.30;;
37715;SDS011;23562;50.540;12.504;2023-02-28T15:12:54;18.95;;;12.63;;
37715;SDS011;23562;50.540;12.504;2023-02-28T15:20:55;24.60;;;13.75;;
37715;SDS011;23562;50.540;12.504;2023-02-28T15:23:20;25.80;;;13.60;;
37715;SDS011;23562;50.540;12.504;2023-02-28T15:25:46;32.03;;;16.10;;
37715;SDS011;23562;50.540;12.504;2023-02-28T15:28:13;24.80;;;14.40;;
37715;SDS011;23562;50.540;12.504;2023-02-28T15:30:39;27.50;;;14.75;;
37715;SDS011;23562;50.540;12.504;2023-02-28T15:35:36;31.55;;;16.38;;
37715;SDS011;23562;50.540;12.504;2023-02-28T15:40:46;36.88;;;20.60;;
37715;SDS011;23562;50.540;12.504;2023-02-28T15:43:23;47.63;;;23.00;;
37715;SDS011;23562;50.540;12.504;2023-02-28T15:45:49;34.60;;;18.55;;
37715;SDS011;23562;50.540;12.504;2023-02-28T15:48:19;28.42;;;15.38;;
37715;SDS011;23562;50.540;12.504;2023-02-28T15:50:46;33.70;;;17.73;;
37715;SDS011;23562;50.540;12.504;2023-02-28T15:53:15;24.55;;;14.65;;
37715;SDS011;23562;50.540;12.504;2023-02-28T15:55:40;23.25;;;13.63;;
37715;SDS011;23562;50.540;12.504;2023-02-28T15:58:08;27.33;;;14.38;;
37715;SDS011;23562;50.540;12.504;2023-02-28T16:00:35;27.88;;;14.75;;
37715;SDS011;23562;50.540;12.504;2023-02-28T16:03:00;25.80;;;13.82;;
37715;SDS011;23562;50.540;12.504;2023-02-28T16:05:27;25.37;;;14.70;;
37715;SDS011;23562;50.540;12.504;2023-02-28T16:07:53;26.98;;;14.30;;
37715;SDS011;23562;50.540;12.504;2023-02-28T16:10:18;25.98;;;14.55;;
37715;SDS011;23562;50.540;12.504;2023-02-28T16:12:43;22.58;;;13.57;;
37715;SDS011;23562;50.540;12.504;2023-02-28T16:15:17;27.10;;;14.17;;
37715;SDS011;23562;50.540;12.504;2023-02-28T16:20:31;22.38;;;13.35;;
37715;SDS011;23562;50.540;12.504;2023-02-28T16:22:57;27.08;;;14.30;;
37715;SDS011;23562;50.540;12.504;2023-02-28T16:25:28;23.77;;;13.57;;
37715;SDS011;23562;50.540;12.504;2023-02-28T16:27:54;24.23;;;13.73;;
37715;SDS011;23562;50.540;12.504;2023-02-28T16:30:20;24.60;;;14.77;;
37715;SDS011;23562;50.540;12.504;2023-02-28T16:32:46;26.25;;;15.50;;
37715;SDS011;23562;50.540;12.504;2023-02-28T16:35:12;41.50;;;17.37;;
37715;SDS011;23562;50.540;12.504;2023-02-28T16:37:38;47.67;;;20.38;;
37715;SDS011;23562;50.540;12.504;2023-02-28T16:40:04;31.85;;;16.45;;
37715;SDS011;23562;50.540;12.504;2023-02-28T16:42:29;44.95;;;23.27;;
37715;SDS011;23562;50.540;12.504;2023-02-28T16:44:55;41.22;;;23.52;;
37715;SDS011;23562;50.540;12.504;2023-02-28T16:47:23;43.15;;;22.85;;
37715;SDS011;23562;50.540;12.504;2023-02-28T16:50:00;86.40;;;32.55;;
37715;SDS011;23562;50.540;12.504;2023-02-28T16:52:44;99.53;;;37.75;;
37715;SDS011;23562;50.540;12.504;2023-02-28T16:55:13;58.75;;;28.33;;
37715;SDS011;23562;50.540;12.504;2023-02-28T17:09:41;38.58;;;19.65;;
37715;SDS011;23562;50.540;12.504;2023-02-28T17:23:59;90.45;;;37.30;;
37715;SDS011;23562;50.540;12.504;2023-02-28T17:26:43;74.93;;;34.50;;
37715;SDS011;23562;50.540;12.504;2023-02-28T18:15:39;35.03;;;19.52;;
37715;SDS011;23562;50.540;12.504;2023-02-28T18:24:53;38.42;;;18.52;;
37715;SDS011;23562;50.540;12.504;2023-02-28T19:32:22;82.70;;;31.13;;
37715;SDS011;23562;50.540;12.504;2023-02-28T19:35:01;76.05;;;31.50;;
37715;SDS011;23562;50.540;12.504;2023-02-28T19:40:14;68.78;;;28.45;;
37715;SDS011;23562;50.540;12.504;2023-02-28T19:42:40;57.13;;;27.00;;
37715;SDS011;23562;50.540;12.504;2023-02-28T19:45:06;58.63;;;27.40;;
37715;SDS011;23562;50.540;12.504;2023-02-28T19:47:38;52.10;;;25.38;;
37715;SDS011;23562;50.540;12.504;2023-02-28T19:50:05;51.40;;;23.02;;
37715;SDS011;23562;50.540;12.504;2023-02-28T19:52:30;43.55;;;20.77;;
37715;SDS011;23562;50.540;12.504;2023-02-28T19:58:10;40.85;;;18.60;;
37715;SDS011;23562;50.540;12.504;2023-02-28T20:00:51;31.10;;;17.33;;
37715;SDS011;23562;50.540;12.504;2023-02-28T20:06:34;29.73;;;16.00;;
37715;SDS011;23562;50.540;12.504;2023-02-28T20:09:10;34.45;;;17.15;;
37715;SDS011;23562;50.540;12.504;2023-02-28T20:12:03;30.98;;;15.45;;
37715;SDS011;23562;50.540;12.504;2023-02-28T20:36:57;31.27;;;17.13;;
37715;SDS011;23562;50.540;12.504;2023-02-28T20:39:41;30.10;;;14.93;;
37715;SDS011;23562;50.540;12.504;2023-02-28T20:42:23;28.85;;;15.82;;
37715;SDS011;23562;50.540;12.504;2023-02-28T20:45:20;30.58;;;15.48;;
37715;SDS011;23562;50.540;12.504;2023-02-28T20:47:45;32.97;;;15.50;;
37715;SDS011;23562;50.540;12.504;2023-02-28T20:50:16;30.45;;;16.23;;
37715;SDS011;23562;50.540;12.504;2023-02-28T20:52:47;34.85;;;18.60;;
37715;SDS011;23562;50.540;12.504;2023-02-28T21:01:58;37.60;;;20.00;;
37715;SDS011;23562;50.540;12.504;2023-02-28T21:04:36;31.83;;;16.77;;
37715;SDS011;23562;50.540;12.504;2023-02-28T21:07:35;28.95;;;15.27;;
37715;SDS011;23562;50.540;12.504;2023-02-28T21:10:24;27.48;;;15.68;;
37715;SDS011;23562;50.540;12.504;2023-02-28T21:22:28;29.48;;;15.40;;
37715;SDS011;23562;50.540;12.504;2023-02-28T21:25:12;27.48;;;14.52;;
37715;SDS011;23562;50.540;12.504;2023-02-28T21:30:41;32.22;;;14.20;;
37715;SDS011;23562;50.540;12.504;2023-02-28T21:33:20;35.15;;;15.13;;
37715;SDS011;23562;50.540;12.504;2023-02-28T21:38:13;26.67;;;14.47;;
37715;SDS011;23562;50.540;12.504;2023-02-28T21:40:47;28.25;;;14.07;;
37715;SDS011;23562;50.540;12.504;2023-02-28T21:43:45;30.58;;;14.40;;
37715;SDS011;23562;50.540;12.504;2023-02-28T21:46:32;29.90;;;14.80;;
37715;SDS011;23562;50.540;12.504;2023-02-28T21:49:05;27.73;;;14.48;;
37715;SDS011;23562;50.540;12.504;2023-02-28T21:51:39;27.70;;;14.02;;
37715;SDS011;23562;50.540;12.504;2023-02-28T21:54:09;34.08;;;16.70;;
37715;SDS011;23562;50.540;12.504;2023-02-28T22:00:00;29.80;;;15.63;;
37715;SDS011;23562;50.540;12.504;2023-02-28T22:02:31;31.27;;;15.25;;
37715;SDS011;23562;50.540;12.504;2023-02-28T22:05:26;32.63;;;16.30;;
37715;SDS011;23562;50.540;12.504;2023-02-28T22:08:32;28.08;;;15.13;;
37715;SDS011;23562;50.540;12.504;2023-02-28T22:14:25;30.65;;;15.65;;
37715;SDS011;23562;50.540;12.504;2023-02-28T22:17:09;29.20;;;16.08;;
37715;SDS011;23562;50.540;12.504;2023-02-28T22:19:46;36.90;;;17.70;;
37715;SDS011;23562;50.540;12.504;2023-02-28T22:22:31;33.45;;;16.65;;
37715;SDS011;23562;50.540;12.504;2023-02-28T22:25:09;36.15;;;17.38;;
37715;SDS011;23562;50.540;12.504;2023-02-28T22:27:37;31.35;;;15.98;;
37715;SDS011;23562;50.540;12.504;2023-02-28T22:30:31;35.08;;;15.63;;
37715;SDS011;23562;50.540;12.504;2023-02-28T22:33:12;29.00;;;15.60;;
37715;SDS011;23562;50.540;12.504;2023-02-28T22:35:45;28.88;;;15.18;;
37715;SDS011;23562;50.540;12.504;2023-02-28T22:38:11;32.58;;;15.35;;
37715;SDS011;23562;50.540;12.504;2023-02-28T22:40:36;30.75;;;16.20;;
37715;SDS011;23562;50.540;12.504;2023-02-28T22:43:09;31.17;;;16.20;;
37715;SDS011;23562;50.540;12.504;2023-02-28T22:45:37;30.83;;;15.85;;
37715;SDS011;23562;50.540;12.504;2023-02-28T22:48:06;30.20;;;15.50;;
37715;SDS011;23562;50.540;12.504;2023-02-28T22:50:32;33.83;;;14.82;;
37715;SDS011;23562;50.540;12.504;2023-02-28T22:52:57;29.00;;;15.40;;
37715;SDS011;23562;50.540;12.504;2023-02-28T22:55:22;27.53;;;14.50;;
37715;SDS011;23562;50.540;12.504;2023-02-28T22:57:48;29.60;;;15.02;;
37715;SDS011;23562;50.540;12.504;2023-02-28T23:00:13;29.77;;;15.43;;
37715;SDS011;23562;50.540;12.504;2023-02-28T23:02:40;29.55;;;15.93;;
37715;SDS011;23562;50.540;12.504;2023-02-28T23:05:08;32.97;;;15.52;;
37715;SDS011;23562;50.540;12.504;2023-02-28T23:07:33;29.55;;;15.98;;
37715;SDS011;23562;50.540;12.504;2023-02-28T23:09:59;33.95;;;16.67;;
37715;SDS011;23562;50.540;12.504;2023-02-28T23:12:24;30.57;;;16.20;;
37715;SDS011;23562;50.540;12.504;2023-02-28T23:14:52;33.13;;;16.45;;